Time;durP1;ratioP1;P1;durP2;ratioP2;P2;SDS_P1;SDS_P2;PMS_P1;PMS_P2;Temp;Humidity;BMP_temperature;BMP_pressure;BME280_temperature;BME280_humidity;BME280_pressure;Samples;Min_cycle;Max_cycle;Signal;HPM_P1;HPM_P2
2023/02/10 00:00:05;;;;;;;87.13;34.67;;;-7.30;97.00;;;;;;4997647;28;20026;-78
2023/02/10 00:02:31;;;;;;;82.83;35.33;;;-7.30;97.20;;;;;;4997665;28;20018;-77
2023/02/10 00:04:56;;;;;;;87.67;36.43;;;-7.40;97.80;;;;;;4997455;28;20388;-78
2023/02/10 00:07:22;;;;;;;77.73;31.83;;;-7.30;98.50;;;;;;4997443;28;20037;-78
2023/02/10 00:09:48;;;;;;;77.73;32.97;;;-7.30;98.70;;;;;;5014985;28;20056;-78
2023/02/10 00:12:14;;;;;;;67.70;31.53;;;-7.30;99.00;;;;;;4997467;28;20030;-78
2023/02/10 00:14:40;;;;;;;79.73;33.23;;;-7.30;99.40;;;;;;4997190;28;20054;-79
2023/02/10 00:17:05;;;;;;;63.30;28.77;;;-7.30;99.90;;;;;;5014873;28;20056;-78
2023/02/10 00:19:33;;;;;;;71.63;30.47;;;-7.20;99.90;;;;;;4997216;28;20064;-78
2023/02/10 00:22:00;;;;;;;78.10;31.53;;;-7.20;99.90;;;;;;5014787;28;20029;-78
2023/02/10 00:24:26;;;;;;;64.23;25.67;;;-7.20;99.90;;;;;;4997244;28;20021;-78
2023/02/10 00:26:52;;;;;;;65.43;26.50;;;-7.20;99.90;;;;;;4997055;28;20029;-78
2023/02/10 00:29:17;;;;;;;54.33;25.83;;;-7.20;99.90;;;;;;5033944;28;20022;-78
2023/02/10 00:31:43;;;;;;;51.93;23.93;;;-7.20;99.90;;;;;;5016703;28;20394;-78
2023/02/10 00:34:14;;;;;;;43.73;19.83;;;-7.10;99.90;;;;;;5033976;28;20135;-78
2023/02/10 00:36:40;;;;;;;47.50;22.10;;;-7.10;99.90;;;;;;5016684;28;20034;-78
2023/02/10 00:39:06;;;;;;;44.83;21.63;;;-7.10;99.90;;;;;;5016221;28;20099;-80
2023/02/10 00:41:32;;;;;;;53.10;21.73;;;-7.00;99.90;;;;;;5017065;28;20481;-80
2023/02/10 00:43:57;;;;;;;51.22;22.52;;;-6.80;99.90;;;;;;5016183;28;20120;-80
2023/02/10 00:46:23;;;;;;;49.67;23.00;;;-6.80;99.90;;;;;;5016690;28;20036;-80
2023/02/10 00:48:49;;;;;;;49.77;23.33;;;-6.80;99.90;;;;;;5033990;28;20497;-79
2023/02/10 00:51:15;;;;;;;49.30;23.07;;;-6.70;99.90;;;;;;5016475;28;20025;-79
2023/02/10 00:53:41;;;;;;;59.50;24.92;;;-6.70;99.90;;;;;;5033521;28;20060;-78
2023/02/10 00:56:08;;;;;;;53.47;24.67;;;-6.70;99.90;;;;;;5015820;28;20022;-78
2023/02/10 00:58:34;;;;;;;51.93;25.13;;;-6.60;99.90;;;;;;5015399;28;20021;-77
2023/02/10 01:00:59;;;;;;;59.93;22.63;;;-6.70;99.90;;;;;;5033833;28;20426;-78
2023/02/10 01:03:25;;;;;;;50.40;22.58;;;-6.70;99.90;;;;;;5015665;28;20040;-78
2023/02/10 01:05:50;;;;;;;48.50;21.63;;;-6.70;99.90;;;;;;5034065;28;20026;-77
2023/02/10 01:08:17;;;;;;;43.30;21.47;;;-6.60;99.90;;;;;;5033522;28;20029;-77
2023/02/10 01:10:43;;;;;;;48.37;22.57;;;-6.60;99.90;;;;;;5016148;28;20022;-81
2023/02/10 01:13:10;;;;;;;45.43;21.53;;;-6.60;99.90;;;;;;5015557;28;20391;-80
2023/02/10 01:15:45;;;;;;;44.90;22.23;;;-6.50;99.90;;;;;;5016140;28;20115;-79
2023/02/10 01:18:11;;;;;;;42.00;20.57;;;-6.50;99.90;;;;;;5033327;28;20025;-79
2023/02/10 01:20:43;;;;;;;40.35;19.73;;;-6.50;99.90;;;;;;5033891;28;20088;-80
2023/02/10 01:23:09;;;;;;;44.83;20.98;;;-6.50;99.90;;;;;;5033205;28;20029;-80
2023/02/10 01:25:37;;;;;;;50.20;22.00;;;-6.50;99.90;;;;;;5015805;28;20033;-80
2023/02/10 01:28:03;;;;;;;44.83;19.90;;;-6.40;99.90;;;;;;5015370;28;20060;-80
2023/02/10 01:30:29;;;;;;;42.00;21.58;;;-6.40;99.90;;;;;;5033405;28;20414;-80
2023/02/10 01:32:55;;;;;;;43.17;19.35;;;-6.40;99.90;;;;;;5033365;28;20052;-80
2023/02/10 01:35:21;;;;;;;44.17;21.77;;;-6.40;99.90;;;;;;5015475;28;20037;-80
2023/02/10 01:37:47;;;;;;;42.60;21.65;;;-6.30;99.90;;;;;;5033242;28;20020;-80
2023/02/10 01:40:13;;;;;;;44.42;21.42;;;-6.20;99.90;;;;;;5015553;28;20104;-80
2023/02/10 01:42:42;;;;;;;39.88;19.25;;;-6.20;99.90;;;;;;5020323;28;20045;-78
2023/02/10 01:45:25;;;;;;;41.72;18.70;;;-6.10;99.90;;;;;;5015594;28;20018;-78
2023/02/10 01:47:52;;;;;;;46.03;19.55;;;-6.10;99.90;;;;;;5015464;28;20033;-78
2023/02/10 01:50:21;;;;;;;40.70;20.60;;;-6.10;99.90;;;;;;5015769;28;20021;-80
2023/02/10 01:52:47;;;;;;;39.22;18.70;;;-6.10;99.90;;;;;;5014418;28;20021;-78
2023/02/10 01:55:17;;;;;;;45.10;20.90;;;-6.00;99.90;;;;;;5013209;28;20487;-81
2023/02/10 01:57:44;;;;;;;44.85;20.27;;;-6.00;99.90;;;;;;5013138;28;20029;-81
2023/02/10 02:00:12;;;;;;;46.15;20.70;;;-6.00;99.90;;;;;;5010978;28;20662;-80
2023/02/10 02:02:39;;;;;;;47.97;21.83;;;-6.00;99.90;;;;;;4993659;28;20018;-80
2023/02/10 02:05:17;;;;;;;47.72;20.20;;;-6.00;99.90;;;;;;5011531;28;20018;-80
2023/02/10 02:07:43;;;;;;;45.67;21.58;;;-6.10;99.90;;;;;;4994179;28;20018;-80
2023/02/10 02:10:09;;;;;;;42.75;19.92;;;-6.10;99.90;;;;;;5017022;28;20030;-79
2023/02/10 02:12:37;;;;;;;44.13;20.92;;;-6.10;99.90;;;;;;4997526;28;20396;-79
2023/02/10 02:15:11;;;;;;;41.23;18.57;;;-6.20;99.90;;;;;;4993979;28;20051;-79
2023/02/10 02:17:54;;;;;;;44.53;21.10;;;-6.20;99.90;;;;;;4995905;28;20041;-79
2023/02/10 02:20:47;;;;;;;39.33;18.67;;;-6.20;99.90;;;;;;4995583;28;20115;-79
2023/02/10 02:23:24;;;;;;;40.28;18.30;;;-6.30;99.90;;;;;;4994528;28;20037;-78
2023/02/10 02:26:24;;;;;;;36.30;17.93;;;-6.40;99.90;;;;;;4994837;28;20027;-79
2023/02/10 02:28:49;;;;;;;44.23;19.30;;;-6.40;99.90;;;;;;4997311;28;20539;-79
2023/02/10 02:31:40;;;;;;;35.27;18.20;;;-6.40;99.90;;;;;;4996095;28;20113;-79
2023/02/10 02:34:19;;;;;;;39.47;17.43;;;-6.40;99.90;;;;;;4996706;28;20045;-79
2023/02/10 02:37:09;;;;;;;41.83;18.93;;;-6.40;99.90;;;;;;4995906;28;20031;-80
2023/02/10 02:39:35;;;;;;;42.60;19.47;;;-6.40;99.90;;;;;;4995857;28;20054;-78
2023/02/10 02:42:16;;;;;;;43.50;20.97;;;-6.40;99.90;;;;;;4997228;28;20050;-79
2023/02/10 02:44:44;;;;;;;44.33;18.83;;;-6.40;99.90;;;;;;4995860;28;20435;-79
2023/02/10 02:47:41;;;;;;;39.93;20.47;;;-6.40;99.90;;;;;;4995714;28;20113;-80
2023/02/10 02:50:35;;;;;;;44.13;20.63;;;-6.30;99.90;;;;;;4984815;28;20049;-79
2023/02/10 02:53:27;;;;;;;41.47;21.03;;;-6.30;99.90;;;;;;4977364;28;20034;-79
2023/02/10 02:56:25;;;;;;;44.67;20.60;;;-6.30;99.90;;;;;;4994839;28;20069;-79
2023/02/10 02:59:13;;;;;;;43.40;20.10;;;-6.30;99.90;;;;;;4995553;28;20384;-79
2023/02/10 03:01:51;;;;;;;42.63;19.63;;;-6.40;99.90;;;;;;4996642;28;20121;-78
2023/02/10 03:04:17;;;;;;;46.72;19.50;;;-6.40;99.90;;;;;;4995396;28;20019;-79
2023/02/10 03:06:43;;;;;;;36.78;16.70;;;-6.40;99.90;;;;;;4995467;28;20029;-79
2023/02/10 03:09:10;;;;;;;42.00;19.73;;;-6.40;99.90;;;;;;4995342;28;20022;-79
2023/02/10 03:11:35;;;;;;;44.00;21.67;;;-6.50;99.90;;;;;;4995358;28;20512;-79
2023/02/10 03:14:01;;;;;;;53.38;23.92;;;-6.50;99.90;;;;;;4994871;28;20125;-79
2023/02/10 03:16:27;;;;;;;53.05;25.33;;;-6.50;99.90;;;;;;4996462;28;20031;-78
2023/02/10 03:18:52;;;;;;;49.25;21.17;;;-6.50;99.90;;;;;;4996219;28;20037;-79
2023/02/10 03:21:18;;;;;;;42.20;21.20;;;-6.50;99.90;;;;;;4995563;28;20602;-79
2023/02/10 03:23:44;;;;;;;41.60;18.33;;;-6.50;99.90;;;;;;4996344;28;20531;-79
2023/02/10 03:26:10;;;;;;;38.70;18.73;;;-6.50;99.90;;;;;;4994994;28;20026;-79
2023/02/10 03:28:36;;;;;;;40.17;19.10;;;-6.50;99.90;;;;;;4994986;28;20023;-77
2023/02/10 03:31:06;;;;;;;36.63;18.42;;;-6.50;99.90;;;;;;4996175;28;20029;-78
2023/02/10 03:33:32;;;;;;;37.57;19.03;;;-6.50;99.90;;;;;;4994852;28;20381;-78
2023/02/10 03:35:58;;;;;;;40.03;19.63;;;-6.50;99.90;;;;;;4996185;28;20038;-78
2023/02/10 03:38:25;;;;;;;38.30;19.67;;;-6.60;99.90;;;;;;4994788;28;20058;-78
2023/02/10 03:40:51;;;;;;;35.30;19.27;;;-6.60;99.90;;;;;;4994166;28;20084;-80
2023/02/10 03:43:18;;;;;;;36.85;19.98;;;-6.60;99.90;;;;;;4994851;28;20023;-80
2023/02/10 03:45:44;;;;;;;46.50;21.88;;;-6.70;99.90;;;;;;4995685;28;20034;-80
2023/02/10 03:48:10;;;;;;;41.65;22.10;;;-6.80;99.90;;;;;;4994474;28;20376;-80
2023/02/10 03:50:36;;;;;;;51.60;27.17;;;-6.80;99.90;;;;;;4994301;28;20110;-78
2023/02/10 03:53:01;;;;;;;51.03;27.10;;;-6.90;99.90;;;;;;4995897;28;20023;-78
2023/02/10 03:55:27;;;;;;;39.50;21.60;;;-7.00;99.90;;;;;;4994444;28;20038;-78
2023/02/10 03:57:53;;;;;;;42.70;22.00;;;-7.00;99.90;;;;;;4995757;28;20019;-78
2023/02/10 04:00:19;;;;;;;46.33;22.20;;;-7.10;99.90;;;;;;4994407;28;20444;-79
2023/02/10 04:02:45;;;;;;;34.53;18.37;;;-7.10;99.90;;;;;;4995657;28;20050;-78
2023/02/10 04:05:11;;;;;;;35.78;18.33;;;-7.10;99.90;;;;;;4995553;28;20062;-81
2023/02/10 04:07:37;;;;;;;43.03;18.80;;;-7.20;99.90;;;;;;4995460;28;20037;-80
2023/02/10 04:10:04;;;;;;;38.93;18.97;;;-7.30;99.90;;;;;;4995823;28;20030;-80
2023/02/10 04:12:30;;;;;;;35.67;18.80;;;-7.30;99.90;;;;;;4994666;28;20026;-78
2023/02/10 04:14:56;;;;;;;37.80;19.37;;;-7.40;99.90;;;;;;4993955;28;20507;-78
2023/02/10 04:17:21;;;;;;;40.70;20.30;;;-7.40;99.90;;;;;;4994145;28;20026;-78
2023/02/10 04:19:47;;;;;;;42.57;19.53;;;-7.50;99.90;;;;;;4994062;28;20022;-78
2023/02/10 04:22:13;;;;;;;46.57;21.63;;;-7.50;99.90;;;;;;4995376;28;20042;-77
2023/02/10 04:24:38;;;;;;;45.73;21.23;;;-7.50;99.90;;;;;;4993971;28;20109;-77
2023/02/10 04:27:04;;;;;;;40.27;19.63;;;-7.50;99.90;;;;;;4993934;28;20046;-78
2023/02/10 04:29:29;;;;;;;46.13;23.17;;;-7.60;99.90;;;;;;4995189;28;20030;-78
2023/02/10 04:31:55;;;;;;;63.27;28.03;;;-7.60;99.90;;;;;;4995083;28;20439;-78
2023/02/10 04:34:21;;;;;;;57.67;25.00;;;-7.60;99.90;;;;;;4993668;28;20030;-79
2023/02/10 04:36:46;;;;;;;47.97;20.33;;;-7.60;99.90;;;;;;4993785;28;20038;-78
2023/02/10 04:39:13;;;;;;;47.67;21.23;;;-7.60;99.90;;;;;;4994908;28;20129;-78
2023/02/10 04:41:38;;;;;;;47.03;21.10;;;-7.70;99.90;;;;;;4993700;28;20072;-77
2023/02/10 04:44:05;;;;;;;49.60;20.57;;;-7.80;99.90;;;;;;4993558;28;20022;-77
2023/02/10 04:46:31;;;;;;;53.23;23.10;;;-7.80;99.90;;;;;;4993723;28;20404;-77
2023/02/10 04:48:56;;;;;;;52.43;23.20;;;-7.80;99.90;;;;;;4993526;28;20023;-78
2023/02/10 04:51:22;;;;;;;44.23;22.07;;;-7.80;99.90;;;;;;4994788;28;20014;-81
2023/02/10 04:53:48;;;;;;;55.30;26.80;;;-7.80;99.90;;;;;;4994600;28;20034;-79
2023/02/10 04:56:14;;;;;;;62.10;27.63;;;-7.80;99.90;;;;;;4993640;28;20464;-81
2023/02/10 04:58:40;;;;;;;78.43;33.23;;;-7.90;99.90;;;;;;4994534;28;20062;-81
2023/02/10 05:01:06;;;;;;;73.50;34.70;;;-7.90;99.90;;;;;;4993557;28;20041;-81
2023/02/10 05:03:32;;;;;;;56.53;26.53;;;-7.90;99.90;;;;;;4992827;28;20384;-79
2023/02/10 05:05:57;;;;;;;56.47;24.53;;;-7.90;99.90;;;;;;4993543;28;20022;-79
2023/02/10 05:08:23;;;;;;;57.17;23.30;;;-7.90;99.90;;;;;;4993252;28;20350;-81
2023/02/10 05:10:53;;;;;;;53.97;25.10;;;-8.00;99.90;;;;;;4993097;28;20085;-79
2023/02/10 05:13:19;;;;;;;62.03;24.53;;;-8.10;99.90;;;;;;4993398;28;20038;-80
2023/02/10 05:15:44;;;;;;;52.37;22.80;;;-8.10;99.90;;;;;;4993141;28;20054;-79
2023/02/10 05:18:10;;;;;;;62.23;27.00;;;-8.10;99.90;;;;;;4992918;28;20030;-79
2023/02/10 05:20:36;;;;;;;58.37;24.87;;;-8.20;99.90;;;;;;4994469;28;20518;-80
2023/02/10 05:23:01;;;;;;;57.77;25.33;;;-8.20;99.90;;;;;;4992902;28;20547;-79
2023/02/10 05:25:27;;;;;;;59.53;25.27;;;-8.30;99.90;;;;;;4992856;28;20468;-79
2023/02/10 05:27:53;;;;;;;45.33;21.47;;;-8.30;99.90;;;;;;4993108;28;20022;-79
2023/02/10 05:30:19;;;;;;;46.53;24.07;;;-8.30;99.90;;;;;;4993062;28;20026;-79
2023/02/10 05:32:44;;;;;;;57.60;25.83;;;-8.30;99.90;;;;;;4994301;28;20027;-79
2023/02/10 05:35:10;;;;;;;63.13;29.87;;;-8.30;99.90;;;;;;4992972;28;20480;-79
2023/02/10 05:37:36;;;;;;;105.47;39.53;;;-8.30;99.90;;;;;;4992987;28;20029;-79
2023/02/10 05:40:02;;;;;;;66.87;29.63;;;-8.40;99.90;;;;;;4992960;28;20022;-80
2023/02/10 05:42:28;;;;;;;60.80;26.27;;;-8.50;99.90;;;;;;4992153;28;20504;-78
2023/02/10 05:44:53;;;;;;;50.33;24.53;;;-8.70;99.90;;;;;;4993966;28;20029;-78
2023/02/10 05:47:19;;;;;;;48.17;20.53;;;-8.90;99.90;;;;;;4993931;28;20034;-80
2023/02/10 05:49:44;;;;;;;449.60;173.43;;;-9.10;99.90;;;;;;4993937;28;20026;-80
2023/02/10 05:52:10;;;;;;;330.53;105.57;;;-9.10;99.90;;;;;;4993797;28;20034;-80
2023/02/10 05:54:36;;;;;;;185.50;64.23;;;-9.30;99.90;;;;;;4992620;28;20034;-79
2023/02/10 05:57:01;;;;;;;82.03;34.10;;;-9.40;99.90;;;;;;4992465;28;20369;-80
2023/02/10 05:59:27;;;;;;;133.40;49.17;;;-9.40;99.90;;;;;;4992612;28;20029;-82
2023/02/10 06:01:53;;;;;;;125.20;46.03;;;-9.40;99.90;;;;;;4992448;28;20145;-81
2023/02/10 06:04:18;;;;;;;108.30;40.13;;;-9.50;99.90;;;;;;4992413;28;20019;-80
2023/02/10 06:06:44;;;;;;;62.10;27.97;;;-9.50;99.90;;;;;;4992910;28;20054;-79
2023/02/10 06:09:09;;;;;;;84.33;33.30;;;-9.50;99.90;;;;;;4993664;28;20041;-81
2023/02/10 06:11:35;;;;;;;87.73;33.90;;;-9.60;99.90;;;;;;4992355;28;20069;-80
2023/02/10 06:14:01;;;;;;;84.90;33.80;;;-9.60;99.90;;;;;;4992183;28;20090;-79
2023/02/10 06:16:27;;;;;;;68.60;29.07;;;-9.60;99.90;;;;;;4993669;28;20030;-80
2023/02/10 06:18:52;;;;;;;57.17;25.37;;;-9.60;99.90;;;;;;4992357;28;20368;-79
2023/02/10 06:21:19;;;;;;;62.77;25.60;;;-9.60;99.90;;;;;;4993907;28;20077;-79
2023/02/10 06:23:44;;;;;;;67.27;28.37;;;-9.60;99.90;;;;;;4992218;28;20121;-79
2023/02/10 06:26:10;;;;;;;93.50;34.37;;;-9.50;99.90;;;;;;4991884;28;20105;-80
2023/02/10 06:28:36;;;;;;;76.07;30.27;;;-9.50;99.90;;;;;;4990126;28;20117;-80
2023/02/10 06:31:02;;;;;;;67.67;26.73;;;-9.50;99.90;;;;;;4981914;28;20053;-80
2023/02/10 06:33:28;;;;;;;87.60;34.60;;;-9.50;99.90;;;;;;4979993;28;20023;-79
2023/02/10 06:35:54;;;;;;;121.47;41.63;;;-9.50;99.90;;;;;;4981654;28;20031;-80
2023/02/10 06:38:20;;;;;;;102.83;37.47;;;-9.50;99.90;;;;;;4980882;28;20025;-79
2023/02/10 06:40:45;;;;;;;64.40;27.43;;;-9.50;99.90;;;;;;4980817;28;20089;-80
2023/02/10 06:43:11;;;;;;;72.27;26.57;;;-9.50;99.90;;;;;;4981952;28;20069;-80
2023/02/10 06:45:37;;;;;;;54.03;25.80;;;-9.50;99.90;;;;;;4981755;28;20022;-80
2023/02/10 06:48:03;;;;;;;59.27;26.53;;;-9.50;99.90;;;;;;4983046;28;20034;-79
2023/02/10 06:50:29;;;;;;;704.00;247.63;;;-9.40;99.90;;;;;;4981976;28;20023;-79
2023/02/10 06:52:55;;;;;;;361.30;110.70;;;-9.40;99.90;;;;;;4981405;28;20026;-79
2023/02/10 06:55:20;;;;;;;228.77;77.43;;;-9.30;99.90;;;;;;4984346;28;20047;-79
2023/02/10 06:57:46;;;;;;;96.40;40.17;;;-9.20;99.90;;;;;;4980721;28;20068;-83
2023/02/10 07:00:14;;;;;;;387.37;120.70;;;-9.10;99.90;;;;;;4986008;28;20031;-80
2023/02/10 07:02:40;;;;;;;435.87;138.03;;;-9.00;99.90;;;;;;4987760;28;20047;-79
2023/02/10 07:05:07;;;;;;;475.07;147.47;;;-9.00;99.90;;;;;;4984716;28;20031;-79
2023/02/10 07:07:36;;;;;;;780.27;294.10;;;-8.80;99.90;;;;;;4987077;28;20019;-81
2023/02/10 07:10:03;;;;;;;901.77;367.37;;;-8.70;99.90;;;;;;4983418;28;20031;-81
2023/02/10 07:12:28;;;;;;;488.83;171.87;;;-8.60;99.90;;;;;;4986605;28;20030;-80
2023/02/10 07:14:54;;;;;;;121.20;44.43;;;-8.50;99.90;;;;;;4984726;28;20054;-80
2023/02/10 07:17:20;;;;;;;178.83;68.70;;;-8.30;99.90;;;;;;4986444;28;20082;-78
2023/02/10 07:19:46;;;;;;;118.97;48.20;;;-8.10;99.90;;;;;;4984958;28;20102;-77
2023/02/10 07:22:12;;;;;;;112.30;46.27;;;-7.80;99.90;;;;;;4986973;28;20054;-80
2023/02/10 07:24:37;;;;;;;310.10;117.23;;;-7.60;99.90;;;;;;4984727;28;20384;-79
2023/02/10 07:27:04;;;;;;;128.37;57.17;;;-7.30;99.90;;;;;;4983215;28;20058;-80
2023/02/10 07:29:29;;;;;;;156.17;60.77;;;-7.10;99.90;;;;;;4983298;28;20476;-77
2023/02/10 07:31:57;;;;;;;161.67;70.13;;;-6.80;99.90;;;;;;4994723;28;20069;-77
2023/02/10 07:34:24;;;;;;;160.03;67.63;;;-6.50;99.90;;;;;;4994711;28;20133;-78
2023/02/10 07:36:56;;;;;;;162.83;73.97;;;-6.30;99.90;;;;;;4994988;28;20034;-78
2023/02/10 07:39:23;;;;;;;;;;;-6.10;99.90;;;;;;4996588;28;20023;-78
2023/02/10 07:41:49;;;;;;;75.70;37.43;;;-5.90;99.90;;;;;;4994760;28;19960;-77
2023/02/10 07:44:15;;;;;;;76.77;37.83;;;-5.60;99.90;;;;;;4985872;28;20022;-77
2023/02/10 07:46:41;;;;;;;102.63;56.05;;;-5.40;99.90;;;;;;4992894;28;20061;-77
2023/02/10 07:49:06;;;;;;;80.43;37.33;;;-5.20;98.80;;;;;;4994650;28;20050;-78
2023/02/10 07:51:32;;;;;;;55.65;28.70;;;-5.00;96.70;;;;;;4993229;28;20029;-78
2023/02/10 07:53:57;;;;;;;52.40;27.35;;;-4.80;94.70;;;;;;4993384;28;20042;-77
2023/02/10 07:56:23;;;;;;;76.28;34.97;;;-4.60;92.40;;;;;;4993734;28;20061;-78
2023/02/10 07:58:49;;;;;;;54.42;26.33;;;-4.40;90.00;;;;;;4992014;28;20081;-77
2023/02/10 08:01:15;;;;;;;54.53;25.23;;;-4.20;87.30;;;;;;4993670;28;20523;-77
2023/02/10 08:03:40;;;;;;;57.13;26.38;;;-4.10;85.80;;;;;;4990868;28;20034;-78
2023/02/10 08:06:06;;;;;;;43.05;21.77;;;-3.90;84.30;;;;;;4992687;28;20037;-77
2023/02/10 08:08:32;;;;;;;42.15;20.40;;;-3.80;82.60;;;;;;4993673;28;20027;-78
2023/02/10 08:10:58;;;;;;;43.50;22.85;;;-3.60;81.20;;;;;;4992590;28;20092;-77
2023/02/10 08:13:24;;;;;;;35.72;21.67;;;-3.50;80.00;;;;;;4988747;28;20037;-77
2023/02/10 08:15:50;;;;;;;47.28;21.15;;;-3.30;78.70;;;;;;5019625;28;20056;-77
2023/02/10 08:18:15;;;;;;;44.67;21.00;;;-3.10;78.00;;;;;;5034583;28;20096;-77
2023/02/10 08:20:41;;;;;;;41.45;18.10;;;-3.00;76.90;;;;;;5016919;28;20505;-77
2023/02/10 08:23:09;;;;;;;50.60;25.45;;;-2.80;76.20;;;;;;5030368;28;20533;-77
2023/02/10 08:25:35;;;;;;;38.22;18.27;;;-2.70;75.50;;;;;;4999749;28;20029;-77
2023/02/10 08:28:00;;;;;;;38.75;18.75;;;-2.50;74.60;;;;;;5032524;28;20021;-77
2023/02/10 08:30:26;;;;;;;42.08;18.80;;;-2.50;73.60;;;;;;5014576;28;20030;-78
2023/02/10 08:32:51;;;;;;;31.65;17.40;;;-2.40;73.10;;;;;;5014296;28;20021;-78
2023/02/10 08:35:17;;;;;;;31.40;16.90;;;-2.40;72.50;;;;;;5019828;28;20045;-78
2023/02/10 08:37:43;;;;;;;33.95;17.98;;;-2.30;72.60;;;;;;5012451;28;20022;-77
2023/02/10 08:40:09;;;;;;;41.35;21.42;;;-2.30;72.00;;;;;;4998334;28;20045;-77
2023/02/10 08:42:35;;;;;;;36.53;18.83;;;-2.20;71.60;;;;;;4996715;28;20022;-77
2023/02/10 08:45:00;;;;;;;38.33;19.75;;;-2.20;71.30;;;;;;5012868;28;20026;-78
2023/02/10 08:47:26;;;;;;;35.08;16.77;;;-2.10;71.20;;;;;;4994505;28;20018;-77
2023/02/10 08:49:51;;;;;;;39.97;16.95;;;-2.00;70.90;;;;;;5012340;28;20411;-78
2023/02/10 08:52:17;;;;;;;33.40;18.45;;;-1.90;71.00;;;;;;4994779;28;20034;-78
2023/02/10 08:54:43;;;;;;;40.28;19.05;;;-1.80;70.50;;;;;;4995501;28;20495;-77
2023/02/10 08:57:09;;;;;;;34.95;16.63;;;-1.80;70.50;;;;;;5010963;28;20103;-77
2023/02/10 08:59:35;;;;;;;35.67;17.77;;;-1.80;69.80;;;;;;5015482;28;20383;-78
2023/02/10 09:02:01;;;;;;;37.42;18.98;;;-1.60;69.50;;;;;;5033370;28;20034;-78
2023/02/10 09:04:27;;;;;;;35.38;18.92;;;-1.50;69.70;;;;;;5015773;28;20017;-78
2023/02/10 09:06:53;;;;;;;39.08;17.95;;;-1.30;70.20;;;;;;5033302;28;20037;-77
2023/02/10 09:09:24;;;;;;;40.47;19.08;;;-1.10;68.70;;;;;;5033413;28;20030;-78
2023/02/10 09:11:51;;;;;;;38.95;20.58;;;-0.80;68.30;;;;;;5015536;28;20027;-78
2023/02/10 09:14:16;;;;;;;33.70;18.20;;;-0.60;67.80;;;;;;5015480;28;20499;-78
2023/02/10 09:16:42;;;;;;;38.72;18.70;;;-0.40;67.40;;;;;;5015640;28;20036;-78
2023/02/10 09:19:08;;;;;;;34.47;17.45;;;-0.30;67.10;;;;;;5015106;28;20049;-77
2023/02/10 09:21:34;;;;;;;41.92;18.88;;;-0.40;65.60;;;;;;5015530;28;20025;-78
2023/02/10 09:24:00;;;;;;;35.25;17.83;;;-0.20;65.70;;;;;;5033473;28;20031;-78
2023/02/10 09:26:25;;;;;;;35.15;18.20;;;-0.20;65.40;;;;;;5033227;28;20021;-77
2023/02/10 09:28:52;;;;;;;33.97;16.55;;;0.00;65.80;;;;;;5033461;28;20458;-78
2023/02/10 09:31:17;;;;;;;38.58;19.38;;;0.10;65.00;;;;;;5033249;28;20025;-78
2023/02/10 09:33:44;;;;;;;35.55;15.48;;;0.10;65.00;;;;;;5015468;28;20029;-78
2023/02/10 09:36:18;;;;;;;34.80;17.42;;;0.20;64.10;;;;;;5033274;28;20106;-78
2023/02/10 09:38:43;;;;;;;32.45;16.48;;;0.30;64.00;;;;;;5033193;28;20040;-77
2023/02/10 09:41:39;;;;;;;47.55;19.95;;;0.50;65.40;;;;;;5010261;28;21486;-78
2023/02/10 09:44:14;;;;;;;33.70;18.00;;;0.60;64.40;;;;;;4993784;28;20038;-78
2023/02/10 09:46:49;;;;;;;40.22;17.42;;;0.60;63.50;;;;;;4995116;28;20037;-78
2023/02/10 09:49:32;;;;;;;33.08;18.15;;;0.80;64.20;;;;;;5012562;28;20022;-78
2023/02/10 09:52:05;;;;;;;33.33;17.20;;;0.90;62.50;;;;;;5012760;28;20033;-78
2023/02/10 09:54:33;;;;;;;30.52;15.40;;;1.10;62.50;;;;;;4995377;28;20073;-78
2023/02/10 09:57:03;;;;;;;34.85;18.42;;;1.40;63.10;;;;;;4996183;28;20169;-78
2023/02/10 09:59:30;;;;;;;35.50;17.33;;;1.20;60.80;;;;;;4995514;28;20022;-78
2023/02/10 10:02:03;;;;;;;38.40;16.83;;;1.50;60.90;;;;;;5013452;28;20030;-78
2023/02/10 10:04:30;;;;;;;39.58;23.63;;;1.70;61.10;;;;;;4995618;28;20483;-79
2023/02/10 10:07:12;;;;;;;80.63;38.85;;;1.60;60.10;;;;;;5013368;28;20045;-78
2023/02/10 10:09:46;;;;;;;40.75;18.48;;;1.60;59.50;;;;;;4995777;28;20052;-79
2023/02/10 10:12:17;;;;;;;36.33;18.45;;;1.60;61.10;;;;;;5013349;28;20036;-78
2023/02/10 10:14:45;;;;;;;32.50;16.08;;;1.50;61.30;;;;;;5013404;28;20506;-78
2023/02/10 10:17:20;;;;;;;36.10;17.73;;;1.30;60.80;;;;;;4994394;28;20120;-78
2023/02/10 10:20:00;;;;;;;33.42;17.48;;;1.20;61.00;;;;;;5012617;28;20030;-78
2023/02/10 10:22:43;;;;;;;37.80;18.77;;;1.00;62.20;;;;;;4994820;28;20045;-78
2023/02/10 10:25:17;;;;;;;42.70;22.00;;;1.00;62.70;;;;;;5012580;28;20032;-78
2023/02/10 10:27:52;;;;;;;46.72;20.90;;;1.00;63.00;;;;;;5013238;28;20069;-78
2023/02/10 10:30:24;;;;;;;44.35;21.05;;;0.90;63.10;;;;;;4998310;28;20030;-79
2023/02/10 10:32:59;;;;;;;34.88;18.45;;;1.00;62.90;;;;;;5016855;28;20022;-79
2023/02/10 10:35:33;;;;;;;31.50;17.95;;;1.00;62.60;;;;;;4999204;28;20128;-78
2023/02/10 10:37:59;;;;;;;48.65;20.90;;;1.00;62.70;;;;;;4999630;28;20045;-78
2023/02/10 10:40:28;;;;;;;51.03;23.67;;;1.00;62.90;;;;;;5017038;28;20030;-78
2023/02/10 10:42:59;;;;;;;68.15;31.83;;;1.10;63.20;;;;;;5016690;28;20380;-79
2023/02/10 10:45:32;;;;;;;74.28;37.25;;;1.30;64.10;;;;;;5016889;28;20029;-78
2023/02/10 10:48:00;;;;;;;;;;;1.30;63.80;;;;;;4997202;28;20442;-79
2023/02/10 10:50:27;;;;;;;54.33;25.30;;;1.40;63.30;;;;;;5015821;28;19955;-79
2023/02/10 10:52:55;;;;;;;42.83;19.70;;;1.40;62.80;;;;;;5001278;28;20033;-79
2023/02/10 10:55:40;;;;;;;53.67;27.00;;;1.40;63.10;;;;;;4997862;28;20065;-78
2023/02/10 10:58:27;;;;;;;44.80;23.63;;;1.50;63.30;;;;;;5001541;28;20030;-78
2023/02/10 11:00:55;;;;;;;48.40;23.00;;;1.50;63.30;;;;;;4998805;28;20061;-79
2023/02/10 11:03:22;;;;;;;35.88;19.00;;;1.40;63.30;;;;;;5014820;28;20061;-79
2023/02/10 11:06:11;;;;;;;34.58;17.58;;;1.30;63.70;;;;;;4978855;28;20361;-79
2023/02/10 11:08:43;;;;;;;33.20;18.80;;;1.30;63.20;;;;;;4995506;28;20092;-79
2023/02/10 11:11:16;;;;;;;37.83;18.02;;;1.10;63.00;;;;;;4977806;28;20025;-79
2023/02/10 11:13:52;;;;;;;50.67;25.30;;;1.10;63.40;;;;;;4995018;28;20086;-79
2023/02/10 11:16:19;;;;;;;43.50;23.13;;;1.20;63.40;;;;;;5002150;28;20365;-79
2023/02/10 11:18:59;;;;;;;38.55;18.25;;;1.10;63.00;;;;;;4979307;28;20023;-79
2023/02/10 11:21:36;;;;;;;47.53;23.73;;;1.10;63.10;;;;;;4981697;28;20026;-78
2023/02/10 11:24:03;;;;;;;39.08;18.75;;;1.10;63.10;;;;;;5017841;28;20017;-79
2023/02/10 11:26:28;;;;;;;42.05;20.33;;;1.10;63.30;;;;;;5018110;28;20072;-79
2023/02/10 11:28:55;;;;;;;42.35;21.80;;;1.10;62.90;;;;;;5034326;28;20025;-79
2023/02/10 11:31:32;;;;;;;48.88;22.92;;;1.10;63.30;;;;;;5033724;28;20021;-79
2023/02/10 11:34:14;;;;;;;54.75;27.05;;;1.30;63.60;;;;;;5015639;28;20061;-79
2023/02/10 11:36:41;;;;;;;41.40;21.10;;;1.40;63.70;;;;;;5015798;28;20364;-79
2023/02/10 11:39:20;;;;;;;83.95;35.15;;;1.50;63.10;;;;;;5015881;28;20025;-79
2023/02/10 11:41:48;;;;;;;36.67;19.13;;;1.50;63.80;;;;;;5014536;28;20159;-79
2023/02/10 11:44:28;;;;;;;36.38;19.05;;;1.40;63.10;;;;;;5016808;28;20113;-79
2023/02/10 11:47:01;;;;;;;38.58;19.40;;;1.50;63.90;;;;;;5017950;28;20055;-78
2023/02/10 11:49:31;;;;;;;61.40;25.50;;;1.40;63.30;;;;;;5033489;28;20025;-79
2023/02/10 11:51:59;;;;;;;36.35;19.27;;;1.40;64.00;;;;;;5015500;28;20025;-79
2023/02/10 11:54:26;;;;;;;36.22;21.63;;;1.40;64.10;;;;;;5015644;28;20059;-79
2023/02/10 12:00:41;;;;;;;43.42;23.83;;;1.30;65.50;;;;;;5033221;28;20099;-79
2023/02/10 12:03:32;;;;;;;44.08;21.52;;;1.20;66.00;;;;;;5033373;28;20105;-79
2023/02/10 12:06:06;;;;;;;40.50;21.40;;;1.00;66.10;;;;;;5017830;28;20037;-79
2023/02/10 12:08:44;;;;;;;42.33;22.17;;;1.10;67.00;;;;;;5016973;28;20033;-79
2023/02/10 12:11:24;;;;;;;44.03;22.65;;;1.00;67.20;;;;;;5017412;28;20475;-79
2023/02/10 12:13:53;;;;;;;63.40;32.20;;;1.00;67.60;;;;;;5034587;28;20065;-79
2023/02/10 12:16:21;;;;;;;46.83;23.02;;;1.00;67.80;;;;;;5034885;28;20036;-79
2023/02/10 12:19:03;;;;;;;53.78;26.88;;;1.00;67.80;;;;;;5034558;28;20037;-79
2023/02/10 12:21:48;;;;;;;66.68;34.03;;;1.00;67.50;;;;;;5017040;28;20084;-79
2023/02/10 12:24:28;;;;;;;59.35;27.83;;;1.00;67.80;;;;;;5035116;28;20117;-80
2023/02/10 12:27:19;;;;;;;64.47;32.00;;;1.10;68.40;;;;;;5016653;28;20021;-79
2023/02/10 12:29:57;;;;;;;54.95;25.95;;;1.10;68.10;;;;;;4987217;28;20120;-79
2023/02/10 12:32:44;;;;;;;63.70;30.40;;;1.20;67.50;;;;;;5016606;28;20034;-79
2023/02/10 12:35:34;;;;;;;56.42;26.17;;;1.20;68.20;;;;;;5034426;28;20491;-79
2023/02/10 12:38:29;;;;;;;63.28;30.30;;;1.30;68.40;;;;;;5034422;28;20155;-80
2023/02/10 12:41:16;;;;;;;69.57;34.38;;;1.30;69.40;;;;;;5016953;28;20030;-79